Time;durP1;ratioP1;P1;durP2;ratioP2;P2;SDS_P1;SDS_P2;PMS_P1;PMS_P2;Temp;Humidity;BMP_temperature;BMP_pressure;BME280_temperature;BME280_humidity;BME280_pressure;Samples;Min_cycle;Max_cycle;Signal;HPM_P1;HPM_P2
2023/05/27 00:00:06;;;;;;;8.90;1.30;;;9.10;99.90;;;;;;5035745;28;20031;-77
2023/05/27 00:02:32;;;;;;;9.05;0.95;;;9.10;99.90;;;;;;5035975;28;20028;-77
2023/05/27 00:04:58;;;;;;;8.07;1.67;;;9.10;99.90;;;;;;5036163;28;20096;-77
2023/05/27 00:07:24;;;;;;;17.20;0.90;;;9.00;99.90;;;;;;5055144;28;20021;-77
2023/05/27 00:09:50;;;;;;;9.73;1.23;;;9.00;99.90;;;;;;5040104;28;20056;-77
2023/05/27 00:12:15;;;;;;;8.57;0.73;;;8.90;99.90;;;;;;5058023;28;20361;-77
2023/05/27 00:14:41;;;;;;;7.95;1.80;;;8.60;99.90;;;;;;5058352;28;20147;-77
2023/05/27 00:17:09;;;;;;;11.45;0.90;;;8.80;99.90;;;;;;5040327;28;20033;-77
2023/05/27 00:19:34;;;;;;;5.60;0.70;;;8.70;99.90;;;;;;5039718;28;20035;-77
2023/05/27 00:22:00;;;;;;;9.70;0.85;;;8.70;99.90;;;;;;5057473;28;20120;-77
2023/05/27 00:24:26;;;;;;;6.53;0.65;;;8.60;99.90;;;;;;5058118;28;20021;-77
2023/05/27 00:26:51;;;;;;;8.98;1.08;;;8.70;99.90;;;;;;5057788;28;20044;-77
2023/05/27 00:29:17;;;;;;;8.63;0.82;;;;;;;;;;5057819;28;20049;-77
2023/05/27 00:31:43;;;;;;;9.73;0.80;;;8.70;99.90;;;;;;5057560;28;20025;-77
2023/05/27 00:34:09;;;;;;;11.05;1.38;;;8.80;99.90;;;;;;5057267;28;20029;-77
2023/05/27 00:36:35;;;;;;;7.97;0.98;;;8.80;99.90;;;;;;5057708;28;20108;-77
2023/05/27 00:39:01;;;;;;;8.65;1.35;;;8.80;99.90;;;;;;5057364;28;20120;-77
2023/05/27 00:41:27;;;;;;;10.65;0.73;;;8.80;99.90;;;;;;5039386;28;20048;-77
2023/05/27 00:43:53;;;;;;;10.80;1.35;;;8.90;99.90;;;;;;5039810;28;20024;-77
2023/05/27 00:46:19;;;;;;;7.68;1.20;;;8.80;99.90;;;;;;5039122;28;20021;-77
2023/05/27 00:48:46;;;;;;;5.05;0.82;;;8.80;99.90;;;;;;5057584;28;20028;-77
2023/05/27 00:51:12;;;;;;;10.90;0.95;;;8.80;99.90;;;;;;5057685;28;20017;-77
2023/05/27 00:53:42;;;;;;;6.82;0.57;;;8.90;99.90;;;;;;5057045;28;20024;-77
2023/05/27 00:56:09;;;;;;;14.30;0.98;;;10.10;99.90;;;;;;5057429;28;20083;-77
2023/05/27 00:58:35;;;;;;;12.45;1.00;;;8.80;99.90;;;;;;5057194;28;20029;-77
2023/05/27 01:01:02;;;;;;;9.57;0.68;;;8.80;99.90;;;;;;5057445;28;20017;-77
2023/05/27 01:03:28;;;;;;;9.52;0.90;;;8.80;99.90;;;;;;5057374;28;20079;-77
2023/05/27 01:06:02;;;;;;;14.45;2.08;;;8.80;99.90;;;;;;5038998;28;20112;-77
2023/05/27 01:08:34;;;;;;;13.65;1.95;;;8.80;99.90;;;;;;5057228;28;20025;-77
2023/05/27 01:11:00;;;;;;;6.70;0.70;;;8.80;99.90;;;;;;5057141;28;20471;-77
2023/05/27 01:13:31;;;;;;;14.73;1.13;;;8.80;99.90;;;;;;5039090;28;20032;-77
2023/05/27 01:16:01;;;;;;;10.90;0.50;;;8.80;99.90;;;;;;5039057;28;20074;-77
2023/05/27 01:18:29;;;;;;;8.75;1.15;;;8.70;99.90;;;;;;5037776;28;20071;-77
2023/05/27 01:21:02;;;;;;;7.88;0.68;;;8.70;99.90;;;;;;5057005;28;20021;-77
2023/05/27 01:23:28;;;;;;;6.72;1.23;;;8.70;99.90;;;;;;5039002;28;20024;-77
2023/05/27 01:25:54;;;;;;;7.78;1.45;;;8.60;99.90;;;;;;5056564;28;20017;-77
2023/05/27 01:28:20;;;;;;;11.00;1.17;;;;;;;;;;5056660;28;20028;-77
2023/05/27 01:30:46;;;;;;;11.20;0.80;;;8.60;99.90;;;;;;5056434;28;20025;-77
2023/05/27 01:33:17;;;;;;;7.97;0.90;;;8.60;99.90;;;;;;5056153;28;20391;-77
2023/05/27 01:35:56;;;;;;;7.95;1.15;;;8.70;99.90;;;;;;5057083;28;20025;-77
2023/05/27 01:38:24;;;;;;;6.30;0.63;;;8.50;99.90;;;;;;5057079;28;20533;-77
2023/05/27 01:40:51;;;;;;;6.57;0.52;;;8.40;99.90;;;;;;5056825;28;20380;-77
2023/05/27 01:43:18;;;;;;;8.05;0.40;;;8.40;99.90;;;;;;5039054;28;20395;-77
2023/05/27 01:45:44;;;;;;;10.30;0.90;;;8.40;99.90;;;;;;5056079;28;20056;-77
2023/05/27 01:48:10;;;;;;;7.50;1.08;;;8.40;99.90;;;;;;5038796;28;20078;-76
2023/05/27 01:50:36;;;;;;;7.75;1.00;;;8.40;99.90;;;;;;5038233;28;20025;-77
2023/05/27 01:53:03;;;;;;;7.72;1.58;;;8.30;99.90;;;;;;5056390;28;20020;-77
2023/05/27 01:55:30;;;;;;;7.75;1.00;;;8.30;99.90;;;;;;5038245;28;20025;-77
2023/05/27 01:57:55;;;;;;;6.40;0.90;;;8.40;99.90;;;;;;5037864;28;20029;-77
2023/05/27 02:00:21;;;;;;;13.73;1.08;;;8.30;99.90;;;;;;5037750;28;20037;-77
2023/05/27 02:02:47;;;;;;;9.18;0.95;;;8.20;99.90;;;;;;5055915;28;20052;-77
2023/05/27 02:05:12;;;;;;;10.93;1.17;;;8.10;99.90;;;;;;5055866;28;20025;-77
2023/05/27 02:07:38;;;;;;;7.20;0.60;;;8.10;99.90;;;;;;5038190;28;20075;-77
2023/05/27 02:10:05;;;;;;;6.82;0.90;;;8.10;99.90;;;;;;5037570;28;20029;-77
2023/05/27 02:12:30;;;;;;;9.90;1.17;;;8.10;99.90;;;;;;5055628;28;20025;-77
2023/05/27 02:14:59;;;;;;;3.95;0.40;;;8.10;99.90;;;;;;5055081;28;20135;-76
2023/05/27 02:17:24;;;;;;;12.85;0.88;;;8.00;99.90;;;;;;5037342;28;20025;-77
2023/05/27 02:19:50;;;;;;;6.60;1.15;;;8.00;99.90;;;;;;5055432;28;20108;-77
2023/05/27 02:22:17;;;;;;;10.15;1.00;;;7.90;99.90;;;;;;5055623;28;20033;-77
2023/05/27 02:24:42;;;;;;;7.82;0.77;;;7.90;99.90;;;;;;5056265;28;20052;-77
2023/05/27 02:27:08;;;;;;;5.43;0.98;;;7.90;99.90;;;;;;5037879;28;20500;-77
2023/05/27 02:29:34;;;;;;;9.88;1.40;;;7.80;99.90;;;;;;5054379;28;20085;-77
2023/05/27 02:31:59;;;;;;;12.15;0.77;;;7.80;99.90;;;;;;5055153;28;20024;-77
2023/05/27 02:34:25;;;;;;;8.82;0.73;;;7.70;99.90;;;;;;5055180;28;20021;-77
2023/05/27 02:36:51;;;;;;;9.27;1.65;;;7.80;99.90;;;;;;5055384;28;20396;-77
2023/05/27 02:39:17;;;;;;;9.23;0.80;;;7.70;99.90;;;;;;5055392;28;20158;-77
2023/05/27 02:41:42;;;;;;;8.32;1.15;;;7.70;99.90;;;;;;5037731;28;20454;-77
2023/05/27 02:44:08;;;;;;;8.63;1.50;;;7.70;99.90;;;;;;5037654;28;20558;-76
2023/05/27 02:46:34;;;;;;;13.77;1.17;;;7.60;99.90;;;;;;5037067;28;20017;-76
2023/05/27 02:48:59;;;;;;;16.50;1.20;;;7.60;99.90;;;;;;5037595;28;20032;-76
2023/05/27 02:51:25;;;;;;;9.48;1.55;;;7.60;99.90;;;;;;5055196;28;20096;-76
2023/05/27 02:53:50;;;;;;;9.10;1.13;;;7.60;99.90;;;;;;5054938;28;20027;-76
2023/05/27 02:56:17;;;;;;;7.60;0.88;;;7.60;99.90;;;;;;5036722;28;20025;-76
2023/05/27 02:58:43;;;;;;;6.32;1.15;;;7.60;99.90;;;;;;5054911;28;20033;-77
2023/05/27 03:01:08;;;;;;;8.95;0.88;;;7.50;99.90;;;;;;5037141;28;20116;-76
2023/05/27 03:03:34;;;;;;;8.68;1.17;;;7.50;99.90;;;;;;5055304;28;20036;-77
2023/05/27 03:06:00;;;;;;;13.45;1.88;;;7.50;99.90;;;;;;5054733;28;20025;-77
2023/05/27 03:08:25;;;;;;;12.57;1.15;;;7.50;99.90;;;;;;5054719;28;20384;-77
2023/05/27 03:10:51;;;;;;;10.02;2.67;;;7.50;99.90;;;;;;5054921;28;20036;-77
2023/05/27 03:13:16;;;;;;;13.48;1.38;;;7.50;99.90;;;;;;5055036;28;20495;-77
2023/05/27 03:15:42;;;;;;;13.93;1.20;;;7.40;99.90;;;;;;5054694;28;20052;-77
2023/05/27 03:18:07;;;;;;;9.25;1.23;;;7.40;99.90;;;;;;5054593;28;20119;-76
2023/05/27 03:20:33;;;;;;;11.68;1.23;;;7.40;99.90;;;;;;5055057;28;20033;-77
2023/05/27 03:22:58;;;;;;;10.27;1.67;;;7.40;99.90;;;;;;5054581;28;20070;-76
2023/05/27 03:25:24;;;;;;;12.02;1.08;;;7.40;99.90;;;;;;5036874;28;20082;-76
2023/05/27 03:27:50;;;;;;;9.55;1.52;;;7.30;99.90;;;;;;5054744;28;20029;-76
2023/05/27 03:30:15;;;;;;;14.60;1.27;;;7.30;99.90;;;;;;5054575;28;20032;-76
2023/05/27 03:32:41;;;;;;;10.48;2.05;;;7.20;99.90;;;;;;5054663;28;20025;-76
2023/05/27 03:35:07;;;;;;;10.13;1.75;;;7.30;99.90;;;;;;5054590;28;20025;-76
2023/05/27 03:37:33;;;;;;;9.18;1.50;;;7.20;99.90;;;;;;5054540;28;20025;-77
2023/05/27 03:39:58;;;;;;;8.63;0.68;;;7.20;99.90;;;;;;5054395;28;20029;-77
2023/05/27 03:42:24;;;;;;;10.07;1.20;;;7.20;99.90;;;;;;5056707;28;20056;-77
2023/05/27 03:44:50;;;;;;;8.48;0.93;;;7.20;99.90;;;;;;5058504;28;20025;-76
2023/05/27 03:47:20;;;;;;;11.13;1.40;;;7.20;99.90;;;;;;5058403;28;20021;-76
2023/05/27 03:49:46;;;;;;;16.73;0.95;;;7.20;99.90;;;;;;5058230;28;20067;-76
2023/05/27 03:52:11;;;;;;;10.45;1.25;;;7.20;99.90;;;;;;5058437;28;20481;-76
2023/05/27 03:54:37;;;;;;;10.55;1.27;;;7.30;99.90;;;;;;5058751;28;20472;-76
2023/05/27 03:57:02;;;;;;;7.78;0.70;;;7.20;99.90;;;;;;5040592;28;20021;-76
2023/05/27 03:59:29;;;;;;;9.18;1.25;;;7.20;99.90;;;;;;5058314;28;20476;-76
2023/05/27 04:01:55;;;;;;;9.95;0.88;;;7.20;99.90;;;;;;5040383;28;20052;-76
2023/05/27 04:04:20;;;;;;;15.23;1.20;;;7.30;99.90;;;;;;5058314;28;20492;-76
2023/05/27 04:06:46;;;;;;;11.75;1.70;;;7.30;99.90;;;;;;5058569;28;20028;-76
2023/05/27 04:09:12;;;;;;;7.18;0.50;;;7.30;99.90;;;;;;5057966;28;20028;-76
2023/05/27 04:11:37;;;;;;;7.68;1.55;;;7.30;99.90;;;;;;5058793;28;20021;-76
2023/05/27 04:14:06;;;;;;;12.82;1.23;;;7.40;99.90;;;;;;5057542;28;20021;-77
2023/05/27 04:16:33;;;;;;;9.60;1.48;;;7.40;99.90;;;;;;5057759;28;20045;-76
2023/05/27 04:19:00;;;;;;;12.52;2.13;;;7.50;99.90;;;;;;5057563;28;20037;-76
2023/05/27 04:21:26;;;;;;;5.57;0.98;;;7.50;99.90;;;;;;5057619;28;20091;-76
2023/05/27 04:23:51;;;;;;;11.45;1.27;;;7.60;99.90;;;;;;5057514;28;20091;-76
2023/05/27 04:26:18;;;;;;;7.32;1.05;;;7.60;99.90;;;;;;5057254;28;20020;-76
2023/05/27 04:28:45;;;;;;;6.38;0.57;;;7.70;99.90;;;;;;5039921;28;20104;-76
2023/05/27 04:31:15;;;;;;;6.35;0.40;;;7.70;99.90;;;;;;5057943;28;20022;-77
2023/05/27 04:33:41;;;;;;;7.78;0.88;;;7.80;99.90;;;;;;5057782;28;20092;-76
2023/05/27 04:36:07;;;;;;;11.88;1.15;;;7.90;99.90;;;;;;5039282;28;20060;-76
2023/05/27 04:38:33;;;;;;;9.95;1.17;;;7.90;99.90;;;;;;5039642;28;20029;-76
2023/05/27 04:41:00;;;;;;;6.90;0.75;;;8.00;99.90;;;;;;5057716;28;20044;-77
2023/05/27 04:43:26;;;;;;;15.98;1.60;;;8.10;99.90;;;;;;5058283;28;20032;-76
2023/05/27 04:45:52;;;;;;;9.05;1.70;;;8.10;99.90;;;;;;5057127;28;20021;-76
2023/05/27 04:48:25;;;;;;;9.60;0.88;;;8.20;99.90;;;;;;5057599;28;20028;-74
2023/05/27 04:50:53;;;;;;;13.95;0.50;;;9.20;99.90;;;;;;5024124;28;20504;-75
2023/05/27 04:53:19;;;;;;;7.07;0.73;;;8.30;99.90;;;;;;5056665;28;20419;-75
2023/05/27 04:55:45;;;;;;;10.38;1.30;;;8.40;99.90;;;;;;5039692;28;20115;-74
2023/05/27 04:58:10;;;;;;;16.42;1.48;;;8.50;99.90;;;;;;5057438;28;20025;-74
2023/05/27 05:00:38;;;;;;;10.25;2.85;;;8.50;99.90;;;;;;5057714;28;20036;-75
2023/05/27 05:03:08;;;;;;;9.70;1.05;;;8.60;99.90;;;;;;5039945;28;20025;-75
2023/05/27 05:05:34;;;;;;;8.85;1.02;;;8.70;99.90;;;;;;5039741;28;20029;-75
2023/05/27 05:07:59;;;;;;;11.07;1.63;;;8.80;99.90;;;;;;5057209;28;20086;-74
2023/05/27 05:10:26;;;;;;;12.05;1.25;;;8.80;99.90;;;;;;5056873;28;20021;-75
2023/05/27 05:12:54;;;;;;;11.95;2.17;;;9.00;99.90;;;;;;5039609;28;20480;-74
2023/05/27 05:15:20;;;;;;;7.07;0.85;;;9.10;99.90;;;;;;5056943;28;20029;-74
2023/05/27 05:17:45;;;;;;;5.15;0.40;;;9.10;99.90;;;;;;5038808;28;20037;-74
2023/05/27 05:20:12;;;;;;;6.07;0.73;;;9.20;99.90;;;;;;5056870;28;20029;-74
2023/05/27 05:22:37;;;;;;;11.55;1.48;;;9.30;99.90;;;;;;5056995;28;20143;-74
2023/05/27 05:25:04;;;;;;;7.28;0.95;;;9.30;99.90;;;;;;5057112;28;20060;-74
2023/05/27 05:27:29;;;;;;;15.80;1.45;;;9.40;99.90;;;;;;5038879;28;20078;-74
2023/05/27 05:29:55;;;;;;;8.80;0.98;;;9.50;99.90;;;;;;5056850;28;20024;-74
2023/05/27 05:32:21;;;;;;;14.93;2.05;;;9.50;99.90;;;;;;5057086;28;20070;-74
2023/05/27 05:34:46;;;;;;;12.20;1.15;;;11.20;99.90;;;;;;5057199;28;20029;-74
2023/05/27 05:37:12;;;;;;;13.13;0.90;;;11.60;99.90;;;;;;5056844;28;20029;-75
2023/05/27 05:39:37;;;;;;;5.03;0.93;;;9.80;99.90;;;;;;5056611;28;20020;-75
2023/05/27 05:42:04;;;;;;;11.85;0.73;;;10.70;99.90;;;;;;5038625;28;20031;-75
2023/05/27 05:44:30;;;;;;;18.27;0.88;;;10.00;99.90;;;;;;5056569;28;20013;-75
2023/05/27 05:46:56;;;;;;;13.07;1.73;;;10.10;99.90;;;;;;5056868;28;20031;-75
2023/05/27 05:49:21;;;;;;;13.68;2.17;;;10.20;99.90;;;;;;5056428;28;20098;-74
2023/05/27 05:51:47;;;;;;;15.60;2.30;;;10.20;99.90;;;;;;5056488;28;20092;-75
2023/05/27 05:54:12;;;;;;;11.77;1.08;;;10.30;99.90;;;;;;5037920;28;20040;-75
2023/05/27 05:56:38;;;;;;;6.28;1.05;;;10.40;99.90;;;;;;5056260;28;20032;-75
2023/05/27 05:59:04;;;;;;;15.30;0.80;;;10.60;99.90;;;;;;5056624;28;20033;-75
2023/05/27 06:01:29;;;;;;;8.57;0.85;;;10.70;99.90;;;;;;5056165;28;20025;-75
2023/05/27 06:03:56;;;;;;;6.78;0.60;;;10.70;99.90;;;;;;5038590;28;20396;-75
2023/05/27 06:06:21;;;;;;;6.75;1.05;;;10.90;99.90;;;;;;5038426;28;20028;-75
2023/05/27 06:08:47;;;;;;;9.65;1.73;;;11.00;99.90;;;;;;5056398;28;20021;-75
2023/05/27 06:11:13;;;;;;;10.38;1.17;;;11.20;99.90;;;;;;5037429;28;20062;-74
2023/05/27 06:13:39;;;;;;;10.70;1.00;;;11.20;99.90;;;;;;5055822;28;20021;-74
2023/05/27 06:16:05;;;;;;;10.90;1.30;;;11.50;99.90;;;;;;5055362;28;20052;-74
2023/05/27 06:18:30;;;;;;;10.02;0.73;;;11.50;99.90;;;;;;5056138;28;20091;-74
2023/05/27 06:20:56;;;;;;;7.10;1.73;;;11.60;99.90;;;;;;5055751;28;20021;-74
2023/05/27 06:23:21;;;;;;;4.90;0.40;;;11.70;99.90;;;;;;5037751;28;20028;-74
2023/05/27 06:25:47;;;;;;;8.90;1.50;;;11.80;99.90;;;;;;5054909;28;20024;-74
2023/05/27 06:28:12;;;;;;;10.25;0.77;;;12.00;99.90;;;;;;5054522;28;20036;-75
2023/05/27 06:30:39;;;;;;;9.00;0.80;;;11.90;99.90;;;;;;5054824;28;20044;-76
2023/05/27 06:33:05;;;;;;;13.82;1.92;;;12.10;99.90;;;;;;5054262;28;20037;-75
2023/05/27 06:35:30;;;;;;;12.35;1.65;;;12.30;99.90;;;;;;5036148;28;20488;-75
2023/05/27 06:37:58;;;;;;;7.68;1.13;;;12.50;99.90;;;;;;5053909;28;20020;-75
2023/05/27 06:40:24;;;;;;;13.07;1.02;;;12.60;99.90;;;;;;5054227;28;20021;-75
2023/05/27 06:42:50;;;;;;;9.23;1.15;;;12.70;99.90;;;;;;5036121;28;20025;-75
2023/05/27 06:45:19;;;;;;;9.73;1.00;;;12.90;99.90;;;;;;5054120;28;20392;-75
2023/05/27 06:47:44;;;;;;;13.48;0.70;;;12.90;99.90;;;;;;5053712;28;20518;-76
2023/05/27 06:50:10;;;;;;;5.30;0.73;;;13.10;99.90;;;;;;5053476;28;20017;-75
2023/05/27 06:52:35;;;;;;;7.78;1.20;;;13.40;99.90;;;;;;5052368;28;20024;-75
2023/05/27 06:55:01;;;;;;;11.10;1.75;;;13.60;99.90;;;;;;5053683;28;20489;-75
2023/05/27 06:57:27;;;;;;;9.82;1.42;;;13.60;99.90;;;;;;5053896;28;20036;-74
2023/05/27 06:59:52;;;;;;;15.55;1.67;;;13.90;99.90;;;;;;5035689;28;20017;-75
2023/05/27 07:02:18;;;;;;;6.82;0.65;;;13.90;99.90;;;;;;5053613;28;20132;-75
2023/05/27 07:04:43;;;;;;;5.60;0.68;;;14.00;99.90;;;;;;5035855;28;20459;-75
2023/05/27 07:07:09;;;;;;;13.13;0.88;;;14.10;99.90;;;;;;5053672;28;20380;-75
2023/05/27 07:09:35;;;;;;;12.35;1.00;;;14.10;99.90;;;;;;5053463;28;20028;-75
2023/05/27 07:12:01;;;;;;;9.60;0.82;;;14.20;99.90;;;;;;5035389;28;20025;-75
2023/05/27 07:14:27;;;;;;;8.85;1.70;;;14.20;99.90;;;;;;5053323;28;20029;-75
2023/05/27 07:16:52;;;;;;;12.68;1.50;;;14.10;99.90;;;;;;5035118;28;20025;-75
2023/05/27 07:19:18;;;;;;;8.85;1.27;;;14.00;99.90;;;;;;5053058;28;20064;-75
2023/05/27 07:21:43;;;;;;;8.43;0.80;;;14.00;99.90;;;;;;5053271;28;20434;-75
2023/05/27 07:24:10;;;;;;;8.60;0.88;;;14.00;99.90;;;;;;5053401;28;20400;-75
2023/05/27 07:26:36;;;;;;;8.45;0.77;;;13.90;99.90;;;;;;5053546;28;20494;-75
2023/05/27 07:29:02;;;;;;;13.25;1.02;;;13.80;99.90;;;;;;5035185;28;20029;-75
2023/05/27 07:31:28;;;;;;;6.45;0.90;;;13.90;99.90;;;;;;5052983;28;20039;-75
2023/05/27 07:33:54;;;;;;;12.40;1.40;;;;;;;;;;5052962;28;20021;-75
2023/05/27 07:36:20;;;;;;;7.72;1.25;;;13.80;99.90;;;;;;5052934;28;20033;-75
2023/05/27 07:38:46;;;;;;;13.32;1.00;;;13.80;99.90;;;;;;5052891;28;20021;-74
2023/05/27 07:41:13;;;;;;;10.95;1.08;;;13.90;99.90;;;;;;5053212;28;20035;-75
2023/05/27 07:43:38;;;;;;;10.60;0.45;;;14.00;99.90;;;;;;5035153;28;20017;-75
2023/05/27 07:46:04;;;;;;;15.45;1.60;;;14.30;99.90;;;;;;5052797;28;20044;-75
2023/05/27 07:48:30;;;;;;;8.48;0.90;;;14.50;99.90;;;;;;5052860;28;20029;-75
2023/05/27 07:50:55;;;;;;;13.82;2.05;;;14.60;99.90;;;;;;5052778;28;20025;-75
2023/05/27 07:53:21;;;;;;;11.73;1.48;;;15.70;99.90;;;;;;5035008;28;20017;-75
2023/05/27 07:55:47;;;;;;;8.18;0.38;;;14.80;99.90;;;;;;5052890;28;20468;-75
2023/05/27 07:58:13;;;;;;;17.45;1.75;;;14.90;99.90;;;;;;5034780;28;20120;-75
2023/05/27 08:00:38;;;;;;;9.65;1.17;;;15.00;99.90;;;;;;5052784;28;20025;-75
2023/05/27 08:03:04;;;;;;;8.70;1.55;;;14.90;99.90;;;;;;5034720;28;20068;-76
2023/05/27 08:05:30;;;;;;;8.85;1.17;;;15.30;99.90;;;;;;5035632;28;20453;-77
2023/05/27 08:07:55;;;;;;;10.85;1.63;;;15.60;99.90;;;;;;5035636;28;20108;-76
2023/05/27 08:10:21;;;;;;;9.82;0.55;;;16.10;99.90;;;;;;5053532;28;20025;-77
2023/05/27 08:12:47;;;;;;;9.82;2.00;;;15.70;99.90;;;;;;5052869;28;20018;-76
2023/05/27 08:15:12;;;;;;;7.93;1.45;;;15.80;99.90;;;;;;5034975;28;20067;-76
2023/05/27 08:17:39;;;;;;;9.35;0.88;;;16.00;99.90;;;;;;5052795;28;20021;-75
2023/05/27 08:20:05;;;;;;;9.82;2.17;;;16.00;99.90;;;;;;5034685;28;20029;-74
2023/05/27 08:22:31;;;;;;;9.35;1.10;;;16.20;99.90;;;;;;5034753;28;20507;-74
2023/05/27 08:24:57;;;;;;;9.25;1.15;;;16.30;99.90;;;;;;5052546;28;20480;-74
2023/05/27 08:27:44;;;;;;;19.73;1.25;;;17.20;99.90;;;;;;5052411;28;20021;-74
2023/05/27 08:30:11;;;;;;;9.60;0.80;;;16.60;99.90;;;;;;5055659;28;20559;-74
2023/05/27 08:32:37;;;;;;;10.40;0.60;;;16.60;99.90;;;;;;5056246;28;20074;-74
2023/05/27 08:35:03;;;;;;;9.25;1.10;;;16.90;99.90;;;;;;5056348;28;20541;-74
2023/05/27 08:37:28;;;;;;;13.20;1.52;;;16.90;99.90;;;;;;5038401;28;20040;-74
2023/05/27 08:39:55;;;;;;;15.27;1.90;;;17.00;99.90;;;;;;5056716;28;20063;-74
2023/05/27 08:42:21;;;;;;;7.85;0.93;;;17.10;99.90;;;;;;5038442;28;20032;-74
2023/05/27 08:44:46;;;;;;;6.82;1.02;;;17.20;99.90;;;;;;5038651;28;20103;-74
2023/05/27 08:47:13;;;;;;;16.52;1.00;;;17.30;99.90;;;;;;5056066;28;20114;-74
2023/05/27 08:49:39;;;;;;;10.18;0.98;;;17.30;99.90;;;;;;5056056;28;20516;-76
2023/05/27 08:52:08;;;;;;;9.05;1.23;;;17.40;99.90;;;;;;5056673;28;20048;-76
2023/05/27 08:54:35;;;;;;;10.05;1.08;;;17.60;99.90;;;;;;5056161;28;20029;-76
2023/05/27 08:57:07;;;;;;;10.65;1.10;;;17.70;99.90;;;;;;5055973;28;20025;-76
2023/05/27 08:59:34;;;;;;;12.38;1.55;;;17.70;99.90;;;;;;5038068;28;20464;-76
2023/05/27 09:02:02;;;;;;;10.57;0.73;;;17.90;99.90;;;;;;5053968;28;20100;-76
2023/05/27 09:04:28;;;;;;;8.18;1.02;;;18.00;99.90;;;;;;5037845;28;20423;-76
2023/05/27 09:06:53;;;;;;;8.43;0.77;;;18.00;99.90;;;;;;5055309;28;20025;-76
2023/05/27 09:09:20;;;;;;;17.15;1.58;;;18.20;99.90;;;;;;5055635;28;20044;-76
2023/05/27 09:11:45;;;;;;;17.35;1.35;;;19.20;99.90;;;;;;5037761;28;20546;-76
2023/05/27 09:14:23;;;;;;;11.95;2.28;;;20.30;99.90;;;;;;5055673;28;20108;-76
2023/05/27 09:16:49;;;;;;;6.07;0.95;;;18.30;99.90;;;;;;5055459;28;20032;-76
2023/05/27 09:19:19;;;;;;;7.63;1.58;;;18.30;99.90;;;;;;5055198;28;20123;-76
2023/05/27 09:21:45;;;;;;;11.23;1.95;;;18.40;99.80;;;;;;5037621;28;20502;-76
2023/05/27 09:24:11;;;;;;;13.20;1.17;;;18.50;99.90;;;;;;5037346;28;20021;-76
2023/05/27 09:26:39;;;;;;;10.93;1.38;;;18.60;99.90;;;;;;5055114;28;20027;-76
2023/05/27 09:29:08;;;;;;;10.88;1.02;;;18.60;99.90;;;;;;5055109;28;20032;-76
2023/05/27 09:31:44;;;;;;;;;;;18.70;99.90;;;;;;5055554;28;20017;-76
2023/05/27 09:34:15;;;;;;;9.23;1.58;;;18.90;98.20;;;;;;5037327;28;19908;-76
2023/05/27 09:36:48;;;;;;;6.25;0.55;;;19.00;98.50;;;;;;5055242;28;20032;-76
2023/05/27 09:39:15;;;;;;;7.75;0.85;;;19.10;97.90;;;;;;5054624;28;20029;-76
2023/05/27 09:41:41;;;;;;;10.68;1.38;;;19.10;97.60;;;;;;5037216;28;20013;-76
2023/05/27 09:44:08;;;;;;;9.27;0.68;;;19.30;97.20;;;;;;5037008;28;20035;-76
2023/05/27 09:46:34;;;;;;;8.50;1.80;;;19.40;97.40;;;;;;5054940;28;20029;-76
2023/05/27 09:49:00;;;;;;;13.00;1.73;;;19.50;96.40;;;;;;5054604;28;20511;-76
2023/05/27 09:51:27;;;;;;;7.40;0.93;;;19.60;96.20;;;;;;5054796;28;20013;-76
2023/05/27 09:53:57;;;;;;;7.53;1.15;;;19.60;96.00;;;;;;5036785;28;20395;-76
2023/05/27 09:56:26;;;;;;;9.93;1.15;;;19.70;95.50;;;;;;5054606;28;20082;-76
2023/05/27 09:58:55;;;;;;;5.82;1.30;;;19.80;94.40;;;;;;5053307;28;20032;-76
2023/05/27 10:01:25;;;;;;;6.65;0.52;;;19.90;94.40;;;;;;5036659;28;20021;-76
2023/05/27 10:03:51;;;;;;;7.07;0.95;;;20.00;93.70;;;;;;5053133;28;20024;-76
2023/05/27 10:06:18;;;;;;;11.27;1.80;;;20.10;93.70;;;;;;5054441;28;20017;-76
2023/05/27 10:08:44;;;;;;;12.90;1.48;;;20.20;93.60;;;;;;5035286;28;20079;-76
2023/05/27 10:11:11;;;;;;;6.53;0.90;;;20.30;93.00;;;;;;5036403;28;20467;-76
2023/05/27 10:13:37;;;;;;;7.60;0.73;;;20.50;92.10;;;;;;5054512;28;20029;-76
2023/05/27 10:16:03;;;;;;;7.38;0.90;;;20.50;92.60;;;;;;5054309;28;20075;-76
2023/05/27 10:18:30;;;;;;;6.90;1.00;;;20.60;92.00;;;;;;5054137;28;20491;-76
2023/05/27 10:21:03;;;;;;;12.32;2.33;;;20.70;92.10;;;;;;5053949;28;20074;-76
2023/05/27 10:23:31;;;;;;;9.25;1.17;;;20.90;92.70;;;;;;5054343;28;20059;-76
2023/05/27 10:26:02;;;;;;;10.00;2.27;;;21.20;88.50;;;;;;5054007;28;20033;-76
2023/05/27 10:28:27;;;;;;;3.83;0.82;;;21.30;87.40;;;;;;5054071;28;20162;-76
2023/05/27 10:31:02;;;;;;;8.40;1.27;;;21.30;87.90;;;;;;5053986;28;20100;-76
2023/05/27 10:33:37;;;;;;;5.55;1.13;;;21.50;86.90;;;;;;5036237;28;20048;-76
2023/05/27 10:36:17;;;;;;;7.43;0.95;;;21.60;86.30;;;;;;5054191;28;20468;-76
2023/05/27 10:38:56;;;;;;;10.90;0.98;;;21.90;83.70;;;;;;5054201;28;20037;-76
2023/05/27 10:41:24;;;;;;;7.88;0.98;;;22.00;85.10;;;;;;5035838;28;20475;-77
2023/05/27 10:43:57;;;;;;;5.45;1.10;;;22.00;82.00;;;;;;5053883;28;20021;-77
2023/05/27 10:46:23;;;;;;;9.77;1.58;;;22.00;81.80;;;;;;5035938;28;20021;-76
2023/05/27 10:48:49;;;;;;;7.03;1.00;;;22.00;80.80;;;;;;5035978;28;20028;-76
2023/05/27 10:51:15;;;;;;;6.47;0.75;;;22.00;82.00;;;;;;5035271;28;20051;-76
2023/05/27 10:53:41;;;;;;;7.10;1.40;;;21.80;81.30;;;;;;5053608;28;20092;-76
2023/05/27 10:56:08;;;;;;;4.05;0.93;;;21.70;82.20;;;;;;5053858;28;20025;-76
2023/05/27 10:58:36;;;;;;;6.70;1.38;;;22.20;79.30;;;;;;5053677;28;20391;-76
2023/05/27 11:01:13;;;;;;;5.03;1.13;;;22.30;80.10;;;;;;5053668;28;20044;-76
2023/05/27 11:03:44;;;;;;;7.15;0.82;;;22.70;77.80;;;;;;5053694;28;20029;-76
2023/05/27 11:06:10;;;;;;;9.85;1.67;;;23.10;77.00;;;;;;5053862;28;20021;-76
2023/05/27 11:08:37;;;;;;;10.20;1.85;;;23.40;75.30;;;;;;5035283;28;20040;-76
2023/05/27 11:11:07;;;;;;;3.97;1.00;;;23.60;74.80;;;;;;5053211;28;20045;-76
2023/05/27 11:13:44;;;;;;;6.53;0.68;;;23.50;75.10;;;;;;5053295;28;20487;-76
2023/05/27 11:16:10;;;;;;;10.23;1.50;;;23.60;73.80;;;;;;5053481;28;20025;-76
2023/05/27 11:18:41;;;;;;;3.15;0.47;;;23.80;67.60;;;;;;5053238;28;20033;-76
2023/05/27 11:21:08;;;;;;;5.38;0.82;;;23.80;68.60;;;;;;5053229;28;20038;-76
2023/05/27 11:23:48;;;;;;;6.32;0.68;;;24.00;70.40;;;;;;5053288;28;20029;-75
2023/05/27 11:26:21;;;;;;;7.50;1.10;;;24.10;66.60;;;;;;5035224;28;20052;-76
2023/05/27 11:28:51;;;;;;;3.53;0.82;;;24.30;63.40;;;;;;5053159;28;20400;-76
2023/05/27 11:31:19;;;;;;;5.82;0.65;;;24.40;64.60;;;;;;5035351;28;20048;-76
2023/05/27 11:33:48;;;;;;;5.70;0.75;;;24.60;60.80;;;;;;5053186;28;20056;-76
2023/05/27 11:36:14;;;;;;;9.45;0.85;;;24.80;64.20;;;;;;5053060;28;20017;-75
2023/05/27 11:38:51;;;;;;;7.35;1.15;;;25.00;63.40;;;;;;5052988;28;20025;-76
2023/05/27 11:41:19;;;;;;;3.33;0.50;;;25.00;63.20;;;;;;5052913;28;20502;-76
2023/05/27 11:44:03;;;;;;;5.40;0.75;;;25.20;62.60;;;;;;5052929;28;20021;-76
2023/05/27 11:46:37;;;;;;;5.95;1.17;;;25.30;60.60;;;;;;5052963;28;20034;-76
2023/05/27 11:49:04;;;;;;;11.55;1.17;;;25.60;58.60;;;;;;5052707;28;20116;-76
2023/05/27 11:51:30;;;;;;;4.07;0.82;;;25.60;59.70;;;;;;5052776;28;20536;-76
2023/05/27 11:53:57;;;;;;;10.93;1.83;;;25.60;58.40;;;;;;5034940;28;20045;-75
2023/05/27 11:56:24;;;;;;;3.10;0.73;;;25.50;57.30;;;;;;5035006;28;20025;-76
2023/05/27 11:58:50;;;;;;;8.30;1.08;;;25.60;57.30;;;;;;5034753;28;20024;-75
2023/05/27 12:01:15;;;;;;;4.68;1.20;;;25.60;58.50;;;;;;5053069;28;20013;-76
2023/05/27 12:03:41;;;;;;;7.30;0.65;;;25.80;56.60;;;;;;5055848;28;20025;-76
2023/05/27 12:06:07;;;;;;;4.45;1.00;;;25.80;57.30;;;;;;5038924;28;20067;-76
2023/05/27 12:08:32;;;;;;;5.93;0.77;;;26.10;55.90;;;;;;5037091;28;20020;-76
2023/05/27 12:10:58;;;;;;;5.68;0.95;;;26.20;56.00;;;;;;5038795;28;20029;-76
2023/05/27 12:13:24;;;;;;;5.65;1.13;;;26.40;54.60;;;;;;5038827;28;20040;-76
2023/05/27 12:15:50;;;;;;;7.88;0.57;;;26.60;56.20;;;;;;5056451;28;20027;-76
2023/05/27 12:18:16;;;;;;;11.10;1.48;;;26.90;54.70;;;;;;5038693;28;20110;-76
2023/05/27 12:20:43;;;;;;;8.55;1.13;;;26.90;55.20;;;;;;5038544;28;20061;-76
2023/05/27 12:23:09;;;;;;;4.82;0.90;;;27.20;53.90;;;;;;5056667;28;20057;-76
2023/05/27 12:25:34;;;;;;;3.03;0.57;;;27.50;53.50;;;;;;5056555;28;20451;-76
2023/05/27 12:28:00;;;;;;;6.65;1.17;;;27.70;50.80;;;;;;5056228;28;20043;-76
2023/05/27 12:30:25;;;;;;;6.75;1.00;;;27.80;51.70;;;;;;5056475;28;20021;-76
2023/05/27 12:32:51;;;;;;;6.53;0.98;;;27.70;50.00;;;;;;5038436;28;20480;-76
2023/05/27 12:35:17;;;;;;;5.40;1.05;;;27.80;53.20;;;;;;5056243;28;20029;-76
2023/05/27 12:37:42;;;;;;;4.80;0.90;;;28.00;53.10;;;;;;5038381;28;20107;-75
2023/05/27 12:40:14;;;;;;;9.00;1.10;;;27.90;53.40;;;;;;5056102;28;20108;-76
2023/05/27 12:42:40;;;;;;;8.10;0.90;;;27.70;55.30;;;;;;5056795;28;20025;-74
2023/05/27 12:45:08;;;;;;;2.67;0.55;;;27.90;49.90;;;;;;5056097;28;20480;-74